Wildomar, CA

9:22 AM PDT on March 30, 2015 (GMT -0700)
Camp Pendleton Marine Corps Air Station | | Change Station
CLOSE
Current Station
Airport
Location: Camp Pendleton,
Elevation: 75 ft
Nearby Weather Stations

Elev 75 ft 33.30 °N, 117.36 °W | Updated 4 minutes ago

Clear
Clear
57 °F
Feels Like 57 °F
N
0
Wind Variable Wind from North

Today
High -- | Low -- °F
--% Chance of Precip.
Yesterday
High -- | Low -- °F
Precip. -- in
6:39 AM 7:08 PM
Waxing Gibbous, 80% visible
Pressure 30.04 in
Visibility 1.5 miles
Clouds Overcast 200 ft
Dew Point 53 °F
Humidity 87%
Rainfall 0.00 in
Snow Depth Not available.
UV 1 out of 12
Pollen 9.60 out of 12
Air Quality Not available.
Flu Activity Not available.
SPECI KNFG 301618Z 00000KT 1 1/2SM BR OVC002 14/12 A3004 RMK AO2 T01390117 $

More Conditions Fewer Conditions

Pressure 30.04 in
Visibility 1.5 miles
Clouds Overcast 200 ft
Dew Point 53 °F
Humidity 87%
Rainfall 0.00 in
Snow Depth Not available.
UV 1 out of 12
Pollen 9.60 out of 12
Air Quality Not available.
Flu Activity Not available.
SPECI KNFG 301618Z 00000KT 1 1/2SM BR OVC002 14/12 A3004 RMK AO2 T01390117 $

More Conditions Fewer Conditions

10-Day Weather Forecast

Almanac

Astronomy

Mar. 30, 2015 Rise Set
Actual Time
Civil Twilight
Nautical Twilight
Astronomical Twilight
Moon
Length of Visible Light
Length of Day
Tomorrow will be .
, % of the Moon is Illuminated

Today's Extremes

State Highs State Lows

Community

WunderPhotos

Upload Photos

1,809,532 photos uploaded!

WunderBlogs® & News

Nearby

Air Quality

  Air Quality AQ Index Pollutant
Not available.

Snow Depth

Station Depth Elevation

Earthquake Activity

City Distance Mag. Time & Date
Minimum magnitude displayed is 2.5.

Coastal Water Temperatures

Place Temperature

Stations

Nearby Weather Stations

Station Location Temp. Windchill Dew Point Humidity Wind Precip. Elev Updated Type